sensor_id;sensor_type;location;lat;lon;timestamp;P1;durP1;ratioP1;P2;durP2;ratioP2
52456;SDS011;38369;52.840;7.082;2022-12-10T00:01:06;59.42;;;33.13;;
52456;SDS011;38369;52.840;7.082;2022-12-10T00:03:33;59.55;;;33.83;;
52456;SDS011;38369;52.840;7.082;2022-12-10T00:06:00;63.42;;;35.28;;
52456;SDS011;38369;52.840;7.082;2022-12-10T00:08:26;58.58;;;33.85;;
52456;SDS011;38369;52.840;7.082;2022-12-10T00:10:52;56.17;;;32.92;;
52456;SDS011;38369;52.840;7.082;2022-12-10T00:13:19;61.15;;;33.95;;
52456;SDS011;38369;52.840;7.082;2022-12-10T00:15:45;61.92;;;33.83;;
52456;SDS011;38369;52.840;7.082;2022-12-10T00:18:11;61.35;;;34.75;;
52456;SDS011;38369;52.840;7.082;2022-12-10T00:20:37;61.08;;;34.03;;
52456;SDS011;38369;52.840;7.082;2022-12-10T00:23:03;66.32;;;36.38;;
52456;SDS011;38369;52.840;7.082;2022-12-10T00:25:31;64.13;;;36.35;;
52456;SDS011;38369;52.840;7.082;2022-12-10T00:27:57;63.78;;;36.80;;
52456;SDS011;38369;52.840;7.082;2022-12-10T00:30:23;59.80;;;34.53;;
52456;SDS011;38369;52.840;7.082;2022-12-10T00:32:49;74.43;;;38.15;;
52456;SDS011;38369;52.840;7.082;2022-12-10T00:35:15;62.83;;;34.83;;
52456;SDS011;38369;52.840;7.082;2022-12-10T00:37:41;64.65;;;33.83;;
52456;SDS011;38369;52.840;7.082;2022-12-10T00:40:07;62.55;;;35.50;;
52456;SDS011;38369;52.840;7.082;2022-12-10T00:42:35;64.75;;;35.33;;
52456;SDS011;38369;52.840;7.082;2022-12-10T00:45:02;66.80;;;36.40;;
52456;SDS011;38369;52.840;7.082;2022-12-10T00:47:28;61.28;;;35.45;;
52456;SDS011;38369;52.840;7.082;2022-12-10T00:49:54;62.97;;;32.85;;
52456;SDS011;38369;52.840;7.082;2022-12-10T00:52:20;61.00;;;34.40;;
52456;SDS011;38369;52.840;7.082;2022-12-10T00:54:46;60.03;;;34.50;;
52456;SDS011;38369;52.840;7.082;2022-12-10T00:57:13;62.53;;;35.60;;
52456;SDS011;38369;52.840;7.082;2022-12-10T00:59:39;64.90;;;34.33;;
52456;SDS011;38369;52.840;7.082;2022-12-10T01:02:05;62.15;;;33.55;;
52456;SDS011;38369;52.840;7.082;2022-12-10T01:04:31;61.35;;;35.15;;
52456;SDS011;38369;52.840;7.082;2022-12-10T01:06:57;60.65;;;33.83;;
52456;SDS011;38369;52.840;7.082;2022-12-10T01:09:25;64.85;;;34.90;;
52456;SDS011;38369;52.840;7.082;2022-12-10T01:11:52;62.42;;;34.78;;
52456;SDS011;38369;52.840;7.082;2022-12-10T01:14:23;64.95;;;35.38;;
52456;SDS011;38369;52.840;7.082;2022-12-10T01:16:52;61.97;;;35.28;;
52456;SDS011;38369;52.840;7.082;2022-12-10T01:19:18;66.68;;;37.80;;
52456;SDS011;38369;52.840;7.082;2022-12-10T01:21:45;62.42;;;33.35;;
52456;SDS011;38369;52.840;7.082;2022-12-10T01:24:11;60.88;;;33.70;;
52456;SDS011;38369;52.840;7.082;2022-12-10T01:26:37;62.38;;;33.58;;
52456;SDS011;38369;52.840;7.082;2022-12-10T01:29:04;65.03;;;34.30;;
52456;SDS011;38369;52.840;7.082;2022-12-10T01:31:31;64.97;;;35.28;;
52456;SDS011;38369;52.840;7.082;2022-12-10T01:33:58;63.42;;;35.58;;
52456;SDS011;38369;52.840;7.082;2022-12-10T01:36:25;61.58;;;35.00;;
52456;SDS011;38369;52.840;7.082;2022-12-10T01:38:52;65.63;;;37.17;;
52456;SDS011;38369;52.840;7.082;2022-12-10T01:41:23;70.53;;;37.53;;
52456;SDS011;38369;52.840;7.082;2022-12-10T01:43:57;70.45;;;37.03;;
52456;SDS011;38369;52.840;7.082;2022-12-10T01:46:34;79.45;;;39.72;;
52456;SDS011;38369;52.840;7.082;2022-12-10T01:49:02;70.57;;;37.53;;
52456;SDS011;38369;52.840;7.082;2022-12-10T01:51:30;73.60;;;37.08;;
52456;SDS011;38369;52.840;7.082;2022-12-10T01:53:56;71.53;;;37.85;;
52456;SDS011;38369;52.840;7.082;2022-12-10T01:56:23;71.68;;;37.45;;
52456;SDS011;38369;52.840;7.082;2022-12-10T01:58:50;65.22;;;36.25;;
52456;SDS011;38369;52.840;7.082;2022-12-10T02:08:55;70.03;;;37.38;;
52456;SDS011;38369;52.840;7.082;2022-12-10T02:11:36;68.40;;;37.05;;
52456;SDS011;38369;52.840;7.082;2022-12-10T02:16:59;73.38;;;36.53;;
52456;SDS011;38369;52.840;7.082;2022-12-10T02:22:00;69.60;;;37.65;;
52456;SDS011;38369;52.840;7.082;2022-12-10T02:24:30;76.07;;;37.78;;
52456;SDS011;38369;52.840;7.082;2022-12-10T02:27:06;71.10;;;36.10;;
52456;SDS011;38369;52.840;7.082;2022-12-10T02:29:36;72.55;;;37.53;;
52456;SDS011;38369;52.840;7.082;2022-12-10T02:32:10;70.93;;;37.00;;
52456;SDS011;38369;52.840;7.082;2022-12-10T02:34:43;72.75;;;36.92;;
52456;SDS011;38369;52.840;7.082;2022-12-10T02:37:12;68.40;;;35.90;;
52456;SDS011;38369;52.840;7.082;2022-12-10T02:39:41;76.75;;;36.38;;
52456;SDS011;38369;52.840;7.082;2022-12-10T02:42:09;74.22;;;39.42;;
52456;SDS011;38369;52.840;7.082;2022-12-10T02:44:36;71.63;;;36.42;;
52456;SDS011;38369;52.840;7.082;2022-12-10T02:47:04;73.93;;;35.92;;
52456;SDS011;38369;52.840;7.082;2022-12-10T02:49:31;70.78;;;37.88;;
52456;SDS011;38369;52.840;7.082;2022-12-10T02:51:57;77.47;;;37.17;;
52456;SDS011;38369;52.840;7.082;2022-12-10T02:54:37;73.97;;;38.13;;
52456;SDS011;38369;52.840;7.082;2022-12-10T03:02:19;69.70;;;36.10;;
52456;SDS011;38369;52.840;7.082;2022-12-10T03:04:48;71.97;;;39.05;;
52456;SDS011;38369;52.840;7.082;2022-12-10T03:08:18;74.18;;;36.60;;
52456;SDS011;38369;52.840;7.082;2022-12-10T03:12:43;75.65;;;39.13;;
52456;SDS011;38369;52.840;7.082;2022-12-10T03:15:11;76.90;;;36.28;;
52456;SDS011;38369;52.840;7.082;2022-12-10T03:17:37;72.50;;;37.92;;
52456;SDS011;38369;52.840;7.082;2022-12-10T03:20:04;75.03;;;38.63;;
52456;SDS011;38369;52.840;7.082;2022-12-10T03:22:33;75.18;;;38.63;;
52456;SDS011;38369;52.840;7.082;2022-12-10T03:25:00;82.03;;;40.30;;
52456;SDS011;38369;52.840;7.082;2022-12-10T03:27:27;80.07;;;39.65;;
52456;SDS011;38369;52.840;7.082;2022-12-10T03:29:56;74.80;;;38.78;;
52456;SDS011;38369;52.840;7.082;2022-12-10T03:32:22;85.47;;;39.65;;
52456;SDS011;38369;52.840;7.082;2022-12-10T03:34:51;84.53;;;41.00;;
52456;SDS011;38369;52.840;7.082;2022-12-10T03:37:18;78.28;;;39.25;;
52456;SDS011;38369;52.840;7.082;2022-12-10T03:39:44;78.05;;;40.58;;
52456;SDS011;38369;52.840;7.082;2022-12-10T03:42:10;80.80;;;38.00;;
52456;SDS011;38369;52.840;7.082;2022-12-10T03:44:37;78.18;;;38.55;;
52456;SDS011;38369;52.840;7.082;2022-12-10T03:47:06;72.70;;;37.38;;
52456;SDS011;38369;52.840;7.082;2022-12-10T03:49:33;76.38;;;37.70;;
52456;SDS011;38369;52.840;7.082;2022-12-10T03:51:59;77.80;;;37.35;;
52456;SDS011;38369;52.840;7.082;2022-12-10T03:54:25;85.25;;;40.60;;
52456;SDS011;38369;52.840;7.082;2022-12-10T03:56:51;84.47;;;41.35;;
52456;SDS011;38369;52.840;7.082;2022-12-10T03:59:17;85.90;;;40.17;;
52456;SDS011;38369;52.840;7.082;2022-12-10T04:01:44;85.35;;;39.80;;
52456;SDS011;38369;52.840;7.082;2022-12-10T04:04:10;87.03;;;43.20;;
52456;SDS011;38369;52.840;7.082;2022-12-10T04:06:39;89.18;;;43.38;;
52456;SDS011;38369;52.840;7.082;2022-12-10T04:09:06;93.40;;;43.85;;
52456;SDS011;38369;52.840;7.082;2022-12-10T04:11:32;97.43;;;44.35;;
52456;SDS011;38369;52.840;7.082;2022-12-10T04:13:58;80.20;;;39.55;;
52456;SDS011;38369;52.840;7.082;2022-12-10T04:16:42;94.70;;;44.58;;
52456;SDS011;38369;52.840;7.082;2022-12-10T04:19:10;91.22;;;43.17;;
52456;SDS011;38369;52.840;7.082;2022-12-10T04:21:36;86.72;;;41.08;;
52456;SDS011;38369;52.840;7.082;2022-12-10T04:24:22;87.00;;;43.25;;
52456;SDS011;38369;52.840;7.082;2022-12-10T04:27:09;87.50;;;41.33;;
52456;SDS011;38369;52.840;7.082;2022-12-10T04:29:36;81.97;;;40.13;;
52456;SDS011;38369;52.840;7.082;2022-12-10T04:32:02;90.15;;;42.92;;
52456;SDS011;38369;52.840;7.082;2022-12-10T04:34:28;94.15;;;45.42;;
52456;SDS011;38369;52.840;7.082;2022-12-10T04:36:54;96.63;;;41.08;;
52456;SDS011;38369;52.840;7.082;2022-12-10T04:39:20;94.05;;;41.80;;
52456;SDS011;38369;52.840;7.082;2022-12-10T04:41:47;93.35;;;43.92;;
52456;SDS011;38369;52.840;7.082;2022-12-10T04:44:13;95.97;;;45.53;;
52456;SDS011;38369;52.840;7.082;2022-12-10T04:46:39;95.55;;;44.72;;
52456;SDS011;38369;52.840;7.082;2022-12-10T04:49:05;97.43;;;44.88;;
52456;SDS011;38369;52.840;7.082;2022-12-10T04:51:32;84.63;;;41.45;;
52456;SDS011;38369;52.840;7.082;2022-12-10T04:53:58;96.53;;;45.67;;
52456;SDS011;38369;52.840;7.082;2022-12-10T04:56:24;91.03;;;42.58;;
52456;SDS011;38369;52.840;7.082;2022-12-10T04:58:51;91.68;;;40.63;;
52456;SDS011;38369;52.840;7.082;2022-12-10T05:01:17;92.93;;;41.05;;
52456;SDS011;38369;52.840;7.082;2022-12-10T05:03:46;90.93;;;41.83;;
52456;SDS011;38369;52.840;7.082;2022-12-10T05:06:13;95.82;;;43.58;;
52456;SDS011;38369;52.840;7.082;2022-12-10T05:08:39;88.78;;;41.67;;
52456;SDS011;38369;52.840;7.082;2022-12-10T05:11:10;98.80;;;45.00;;
52456;SDS011;38369;52.840;7.082;2022-12-10T05:16:03;89.90;;;41.08;;
52456;SDS011;38369;52.840;7.082;2022-12-10T05:18:30;104.97;;;44.63;;
52456;SDS011;38369;52.840;7.082;2022-12-10T05:20:59;86.93;;;41.20;;
52456;SDS011;38369;52.840;7.082;2022-12-10T05:23:26;92.60;;;43.63;;
52456;SDS011;38369;52.840;7.082;2022-12-10T05:26:02;84.55;;;42.47;;
52456;SDS011;38369;52.840;7.082;2022-12-10T05:28:29;99.45;;;44.92;;
52456;SDS011;38369;52.840;7.082;2022-12-10T05:30:56;101.22;;;45.95;;
52456;SDS011;38369;52.840;7.082;2022-12-10T05:33:23;101.50;;;45.72;;
52456;SDS011;38369;52.840;7.082;2022-12-10T05:35:53;105.13;;;45.42;;
52456;SDS011;38369;52.840;7.082;2022-12-10T05:38:21;99.43;;;45.85;;
52456;SDS011;38369;52.840;7.082;2022-12-10T05:40:47;110.15;;;46.63;;
52456;SDS011;38369;52.840;7.082;2022-12-10T05:43:13;93.38;;;42.50;;
52456;SDS011;38369;52.840;7.082;2022-12-10T05:45:39;111.57;;;46.83;;
52456;SDS011;38369;52.840;7.082;2022-12-10T05:48:06;100.05;;;43.35;;
52456;SDS011;38369;52.840;7.082;2022-12-10T05:50:32;94.95;;;43.83;;
52456;SDS011;38369;52.840;7.082;2022-12-10T05:52:58;99.97;;;43.38;;
52456;SDS011;38369;52.840;7.082;2022-12-10T05:55:24;105.15;;;44.40;;
52456;SDS011;38369;52.840;7.082;2022-12-10T05:57:52;98.88;;;42.40;;
52456;SDS011;38369;52.840;7.082;2022-12-10T06:00:18;111.07;;;47.22;;
52456;SDS011;38369;52.840;7.082;2022-12-10T06:02:45;111.65;;;47.00;;
52456;SDS011;38369;52.840;7.082;2022-12-10T06:05:11;102.70;;;42.28;;
52456;SDS011;38369;52.840;7.082;2022-12-10T06:07:37;107.32;;;45.60;;
52456;SDS011;38369;52.840;7.082;2022-12-10T06:10:03;116.88;;;47.88;;
52456;SDS011;38369;52.840;7.082;2022-12-10T06:12:30;106.80;;;45.45;;
52456;SDS011;38369;52.840;7.082;2022-12-10T06:14:56;105.60;;;43.42;;
52456;SDS011;38369;52.840;7.082;2022-12-10T06:17:22;108.22;;;46.42;;
52456;SDS011;38369;52.840;7.082;2022-12-10T06:19:48;118.90;;;49.47;;
52456;SDS011;38369;52.840;7.082;2022-12-10T06:22:14;108.28;;;43.13;;
52456;SDS011;38369;52.840;7.082;2022-12-10T06:24:40;112.88;;;48.20;;
52456;SDS011;38369;52.840;7.082;2022-12-10T06:27:06;128.75;;;49.15;;
52456;SDS011;38369;52.840;7.082;2022-12-10T06:29:32;118.32;;;46.95;;
52456;SDS011;38369;52.840;7.082;2022-12-10T06:31:58;105.88;;;47.08;;
52456;SDS011;38369;52.840;7.082;2022-12-10T06:34:24;97.28;;;43.67;;
52456;SDS011;38369;52.840;7.082;2022-12-10T06:36:50;101.30;;;41.97;;
52456;SDS011;38369;52.840;7.082;2022-12-10T06:39:16;101.47;;;42.17;;
52456;SDS011;38369;52.840;7.082;2022-12-10T06:41:42;98.63;;;41.58;;
52456;SDS011;38369;52.840;7.082;2022-12-10T06:44:09;108.38;;;45.47;;
52456;SDS011;38369;52.840;7.082;2022-12-10T06:46:36;107.45;;;41.65;;
52456;SDS011;38369;52.840;7.082;2022-12-10T06:49:02;106.97;;;45.40;;
52456;SDS011;38369;52.840;7.082;2022-12-10T06:51:29;99.45;;;45.83;;
52456;SDS011;38369;52.840;7.082;2022-12-10T06:53:55;101.47;;;43.85;;
52456;SDS011;38369;52.840;7.082;2022-12-10T06:56:21;110.63;;;45.22;;
52456;SDS011;38369;52.840;7.082;2022-12-10T06:58:47;99.53;;;45.22;;
52456;SDS011;38369;52.840;7.082;2022-12-10T07:01:14;100.88;;;44.08;;
52456;SDS011;38369;52.840;7.082;2022-12-10T07:03:41;101.57;;;43.55;;
52456;SDS011;38369;52.840;7.082;2022-12-10T07:06:08;93.43;;;42.25;;
52456;SDS011;38369;52.840;7.082;2022-12-10T07:08:35;105.90;;;44.10;;
52456;SDS011;38369;52.840;7.082;2022-12-10T07:11:05;109.45;;;45.58;;
52456;SDS011;38369;52.840;7.082;2022-12-10T07:13:31;109.40;;;45.35;;
52456;SDS011;38369;52.840;7.082;2022-12-10T07:15:58;108.63;;;44.15;;
52456;SDS011;38369;52.840;7.082;2022-12-10T07:18:24;101.57;;;43.63;;
52456;SDS011;38369;52.840;7.082;2022-12-10T07:20:50;105.82;;;43.53;;
52456;SDS011;38369;52.840;7.082;2022-12-10T07:23:16;110.78;;;44.78;;
52456;SDS011;38369;52.840;7.082;2022-12-10T07:25:42;108.30;;;49.08;;
52456;SDS011;38369;52.840;7.082;2022-12-10T07:28:08;100.22;;;45.08;;
52456;SDS011;38369;52.840;7.082;2022-12-10T07:30:34;109.38;;;47.00;;
52456;SDS011;38369;52.840;7.082;2022-12-10T07:33:00;107.30;;;44.60;;
52456;SDS011;38369;52.840;7.082;2022-12-10T07:35:26;95.00;;;42.88;;
52456;SDS011;38369;52.840;7.082;2022-12-10T07:37:53;104.97;;;42.80;;
52456;SDS011;38369;52.840;7.082;2022-12-10T07:40:19;102.07;;;43.60;;
52456;SDS011;38369;52.840;7.082;2022-12-10T07:42:45;105.13;;;45.38;;
52456;SDS011;38369;52.840;7.082;2022-12-10T07:45:11;105.10;;;46.70;;
52456;SDS011;38369;52.840;7.082;2022-12-10T07:47:37;98.47;;;42.28;;
52456;SDS011;38369;52.840;7.082;2022-12-10T07:50:07;104.93;;;46.30;;
52456;SDS011;38369;52.840;7.082;2022-12-10T07:52:33;91.35;;;43.30;;
52456;SDS011;38369;52.840;7.082;2022-12-10T07:54:59;110.63;;;43.83;;
52456;SDS011;38369;52.840;7.082;2022-12-10T07:57:25;104.22;;;43.83;;
52456;SDS011;38369;52.840;7.082;2022-12-10T07:59:51;105.32;;;44.63;;
52456;SDS011;38369;52.840;7.082;2022-12-10T08:02:17;96.07;;;42.08;;
52456;SDS011;38369;52.840;7.082;2022-12-10T08:04:43;97.03;;;41.03;;
52456;SDS011;38369;52.840;7.082;2022-12-10T08:07:09;95.88;;;41.40;;
52456;SDS011;38369;52.840;7.082;2022-12-10T08:09:36;102.03;;;43.35;;
52456;SDS011;38369;52.840;7.082;2022-12-10T08:12:02;91.97;;;39.13;;
52456;SDS011;38369;52.840;7.082;2022-12-10T08:14:28;95.25;;;42.00;;
52456;SDS011;38369;52.840;7.082;2022-12-10T08:16:54;98.28;;;44.67;;
52456;SDS011;38369;52.840;7.082;2022-12-10T08:19:20;101.28;;;41.97;;
52456;SDS011;38369;52.840;7.082;2022-12-10T08:21:46;93.28;;;43.17;;
52456;SDS011;38369;52.840;7.082;2022-12-10T08:24:12;104.30;;;43.45;;
52456;SDS011;38369;52.840;7.082;2022-12-10T08:26:38;98.88;;;42.55;;
52456;SDS011;38369;52.840;7.082;2022-12-10T08:29:04;94.32;;;43.92;;
52456;SDS011;38369;52.840;7.082;2022-12-10T08:31:30;92.75;;;42.17;;
52456;SDS011;38369;52.840;7.082;2022-12-10T08:33:56;95.10;;;40.83;;
52456;SDS011;38369;52.840;7.082;2022-12-10T08:36:22;96.60;;;42.95;;
52456;SDS011;38369;52.840;7.082;2022-12-10T08:38:48;92.28;;;39.08;;
52456;SDS011;38369;52.840;7.082;2022-12-10T08:41:16;94.03;;;42.15;;
52456;SDS011;38369;52.840;7.082;2022-12-10T08:43:43;93.55;;;39.90;;
52456;SDS011;38369;52.840;7.082;2022-12-10T08:46:09;93.47;;;40.13;;
52456;SDS011;38369;52.840;7.082;2022-12-10T08:48:36;89.60;;;38.63;;
52456;SDS011;38369;52.840;7.082;2022-12-10T08:51:03;99.00;;;43.63;;
52456;SDS011;38369;52.840;7.082;2022-12-10T08:53:29;93.45;;;41.70;;
52456;SDS011;38369;52.840;7.082;2022-12-10T08:55:55;103.13;;;44.63;;
52456;SDS011;38369;52.840;7.082;2022-12-10T08:58:21;100.72;;;41.28;;
52456;SDS011;38369;52.840;7.082;2022-12-10T09:00:48;95.65;;;41.60;;
52456;SDS011;38369;52.840;7.082;2022-12-10T09:03:14;93.35;;;42.20;;
52456;SDS011;38369;52.840;7.082;2022-12-10T09:05:41;89.85;;;40.80;;
52456;SDS011;38369;52.840;7.082;2022-12-10T09:08:07;98.18;;;41.88;;
52456;SDS011;38369;52.840;7.082;2022-12-10T09:10:35;88.78;;;39.67;;
52456;SDS011;38369;52.840;7.082;2022-12-10T09:13:01;98.13;;;42.55;;
52456;SDS011;38369;52.840;7.082;2022-12-10T09:15:27;89.53;;;40.53;;
52456;SDS011;38369;52.840;7.082;2022-12-10T09:17:53;94.43;;;40.85;;
52456;SDS011;38369;52.840;7.082;2022-12-10T09:20:19;106.63;;;47.40;;
52456;SDS011;38369;52.840;7.082;2022-12-10T09:22:45;100.57;;;48.83;;
52456;SDS011;38369;52.840;7.082;2022-12-10T09:25:11;101.25;;;48.38;;
52456;SDS011;38369;52.840;7.082;2022-12-10T09:27:40;102.38;;;48.33;;
52456;SDS011;38369;52.840;7.082;2022-12-10T09:30:06;103.45;;;47.05;;
52456;SDS011;38369;52.840;7.082;2022-12-10T09:32:32;104.97;;;48.25;;
52456;SDS011;38369;52.840;7.082;2022-12-10T09:34:59;94.63;;;44.08;;
52456;SDS011;38369;52.840;7.082;2022-12-10T09:37:25;104.55;;;47.00;;
52456;SDS011;38369;52.840;7.082;2022-12-10T09:39:51;106.15;;;47.30;;
52456;SDS011;38369;52.840;7.082;2022-12-10T09:45:05;100.80;;;47.45;;
52456;SDS011;38369;52.840;7.082;2022-12-10T09:50:19;96.00;;;43.20;;
52456;SDS011;38369;52.840;7.082;2022-12-10T09:52:46;94.15;;;41.42;;
52456;SDS011;38369;52.840;7.082;2022-12-10T09:55:18;87.40;;;39.92;;
52456;SDS011;38369;52.840;7.082;2022-12-10T09:57:48;99.20;;;42.38;;
52456;SDS011;38369;52.840;7.082;2022-12-10T10:02:43;90.55;;;41.00;;
52456;SDS011;38369;52.840;7.082;2022-12-10T10:05:11;85.85;;;38.58;;
52456;SDS011;38369;52.840;7.082;2022-12-10T10:07:42;83.18;;;38.40;;
52456;SDS011;38369;52.840;7.082;2022-12-10T10:15:39;94.53;;;42.47;;
52456;SDS011;38369;52.840;7.082;2022-12-10T10:20:40;87.57;;;44.10;;
52456;SDS011;38369;52.840;7.082;2022-12-10T10:23:08;81.32;;;39.47;;
52456;SDS011;38369;52.840;7.082;2022-12-10T10:25:34;93.68;;;43.38;;
52456;SDS011;38369;52.840;7.082;2022-12-10T10:28:00;87.40;;;42.58;;
52456;SDS011;38369;52.840;7.082;2022-12-10T10:30:26;79.70;;;38.28;;
52456;SDS011;38369;52.840;7.082;2022-12-10T10:32:53;85.40;;;44.13;;
52456;SDS011;38369;52.840;7.082;2022-12-10T10:35:42;80.85;;;41.78;;
52456;SDS011;38369;52.840;7.082;2022-12-10T10:38:07;81.82;;;40.80;;
52456;SDS011;38369;52.840;7.082;2022-12-10T10:40:39;85.15;;;41.78;;
52456;SDS011;38369;52.840;7.082;2022-12-10T10:43:05;80.15;;;40.33;;
52456;SDS011;38369;52.840;7.082;2022-12-10T10:45:33;87.43;;;40.38;;
52456;SDS011;38369;52.840;7.082;2022-12-10T10:48:03;78.95;;;38.30;;
52456;SDS011;38369;52.840;7.082;2022-12-10T10:50:29;84.45;;;42.47;;
52456;SDS011;38369;52.840;7.082;2022-12-10T10:52:55;87.07;;;42.78;;
52456;SDS011;38369;52.840;7.082;2022-12-10T10:55:30;82.95;;;41.40;;
52456;SDS011;38369;52.840;7.082;2022-12-10T10:57:59;87.15;;;44.03;;
52456;SDS011;38369;52.840;7.082;2022-12-10T11:00:26;85.88;;;43.50;;
52456;SDS011;38369;52.840;7.082;2022-12-10T11:02:52;92.35;;;45.50;;
52456;SDS011;38369;52.840;7.082;2022-12-10T11:07:49;78.97;;;40.72;;
52456;SDS011;38369;52.840;7.082;2022-12-10T11:10:23;78.57;;;41.50;;
52456;SDS011;38369;52.840;7.082;2022-12-10T11:12:53;81.88;;;40.08;;
52456;SDS011;38369;52.840;7.082;2022-12-10T11:17:51;84.47;;;42.53;;
52456;SDS011;38369;52.840;7.082;2022-12-10T11:20:19;80.00;;;43.40;;
52456;SDS011;38369;52.840;7.082;2022-12-10T11:22:49;89.25;;;43.53;;
52456;SDS011;38369;52.840;7.082;2022-12-10T11:25:16;89.85;;;43.80;;
52456;SDS011;38369;52.840;7.082;2022-12-10T11:30:17;85.38;;;42.38;;
52456;SDS011;38369;52.840;7.082;2022-12-10T11:32:57;80.68;;;41.00;;
52456;SDS011;38369;52.840;7.082;2022-12-10T11:35:49;80.65;;;41.22;;
52456;SDS011;38369;52.840;7.082;2022-12-10T11:41:02;84.20;;;42.90;;
52456;SDS011;38369;52.840;7.082;2022-12-10T11:43:37;77.80;;;41.42;;
52456;SDS011;38369;52.840;7.082;2022-12-10T11:50:58;87.00;;;43.83;;
52456;SDS011;38369;52.840;7.082;2022-12-10T11:56:17;85.60;;;42.25;;
52456;SDS011;38369;52.840;7.082;2022-12-10T11:59:04;86.97;;;41.75;;
52456;SDS011;38369;52.840;7.082;2022-12-10T12:09:41;86.88;;;44.00;;
52456;SDS011;38369;52.840;7.082;2022-12-10T12:14:42;89.20;;;44.78;;
52456;SDS011;38369;52.840;7.082;2022-12-10T12:19:37;91.45;;;46.63;;
52456;SDS011;38369;52.840;7.082;2022-12-10T12:22:07;92.35;;;47.33;;
52456;SDS011;38369;52.840;7.082;2022-12-10T12:24:37;92.55;;;44.85;;
52456;SDS011;38369;52.840;7.082;2022-12-10T12:29:44;91.00;;;45.05;;
52456;SDS011;38369;52.840;7.082;2022-12-10T12:32:15;87.00;;;43.65;;
52456;SDS011;38369;52.840;7.082;2022-12-10T12:37:16;88.97;;;45.33;;
52456;SDS011;38369;52.840;7.082;2022-12-10T12:39:48;103.90;;;49.55;;
52456;SDS011;38369;52.840;7.082;2022-12-10T12:49:57;92.93;;;44.95;;
52456;SDS011;38369;52.840;7.082;2022-12-10T12:52:33;97.38;;;45.22;;
52456;SDS011;38369;52.840;7.082;2022-12-10T12:55:04;97.18;;;45.33;;
52456;SDS011;38369;52.840;7.082;2022-12-10T12:57:39;93.05;;;44.58;;
52456;SDS011;38369;52.840;7.082;2022-12-10T13:00:10;102.35;;;48.45;;
52456;SDS011;38369;52.840;7.082;2022-12-10T13:02:52;91.93;;;46.88;;
52456;SDS011;38369;52.840;7.082;2022-12-10T13:10:52;103.75;;;50.17;;
52456;SDS011;38369;52.840;7.082;2022-12-10T13:13:28;100.28;;;48.35;;
52456;SDS011;38369;52.840;7.082;2022-12-10T13:15:54;99.75;;;47.63;;
52456;SDS011;38369;52.840;7.082;2022-12-10T13:18:34;104.03;;;52.22;;
52456;SDS011;38369;52.840;7.082;2022-12-10T13:23:47;111.38;;;50.03;;
52456;SDS011;38369;52.840;7.082;2022-12-10T13:26:25;102.28;;;48.92;;
52456;SDS011;38369;52.840;7.082;2022-12-10T13:28:53;110.57;;;51.92;;
52456;SDS011;38369;52.840;7.082;2022-12-10T13:31:21;108.93;;;49.95;;
52456;SDS011;38369;52.840;7.082;2022-12-10T13:41:31;107.75;;;49.45;;
52456;SDS011;38369;52.840;7.082;2022-12-10T13:49:27;103.85;;;46.10;;
52456;SDS011;38369;52.840;7.082;2022-12-10T13:51:58;112.00;;;47.72;;
52456;SDS011;38369;52.840;7.082;2022-12-10T13:59:41;111.55;;;50.15;;
52456;SDS011;38369;52.840;7.082;2022-12-10T14:07:38;107.78;;;46.63;;
52456;SDS011;38369;52.840;7.082;2022-12-10T14:10:05;105.55;;;47.17;;
52456;SDS011;38369;52.840;7.082;2022-12-10T14:12:39;109.65;;;48.22;;
52456;SDS011;38369;52.840;7.082;2022-12-10T14:17:37;111.13;;;48.90;;
52456;SDS011;38369;52.840;7.082;2022-12-10T14:20:05;105.50;;;48.80;;
52456;SDS011;38369;52.840;7.082;2022-12-10T14:22:33;105.55;;;47.45;;
52456;SDS011;38369;52.840;7.082;2022-12-10T14:25:00;106.15;;;47.65;;
52456;SDS011;38369;52.840;7.082;2022-12-10T14:27:27;101.43;;;45.67;;
52456;SDS011;38369;52.840;7.082;2022-12-10T14:29:58;94.63;;;44.97;;
52456;SDS011;38369;52.840;7.082;2022-12-10T14:34:56;100.38;;;42.08;;
52456;SDS011;38369;52.840;7.082;2022-12-10T14:37:25;100.78;;;43.22;;
52456;SDS011;38369;52.840;7.082;2022-12-10T14:39:51;100.45;;;45.13;;
52456;SDS011;38369;52.840;7.082;2022-12-10T14:42:18;94.75;;;41.25;;
52456;SDS011;38369;52.840;7.082;2022-12-10T14:44:45;98.72;;;41.28;;
52456;SDS011;38369;52.840;7.082;2022-12-10T14:47:16;93.50;;;42.67;;
52456;SDS011;38369;52.840;7.082;2022-12-10T14:49:44;89.03;;;41.70;;
52456;SDS011;38369;52.840;7.082;2022-12-10T14:52:18;98.63;;;44.10;;
52456;SDS011;38369;52.840;7.082;2022-12-10T14:54:44;106.88;;;46.97;;
52456;SDS011;38369;52.840;7.082;2022-12-10T14:57:15;106.90;;;42.72;;
52456;SDS011;38369;52.840;7.082;2022-12-10T14:59:45;99.13;;;45.15;;
52456;SDS011;38369;52.840;7.082;2022-12-10T15:02:14;85.25;;;40.92;;
52456;SDS011;38369;52.840;7.082;2022-12-10T15:04:42;90.28;;;42.75;;
52456;SDS011;38369;52.840;7.082;2022-12-10T15:07:22;95.80;;;42.20;;
52456;SDS011;38369;52.840;7.082;2022-12-10T15:09:49;94.30;;;44.67;;
52456;SDS011;38369;52.840;7.082;2022-12-10T15:12:21;94.18;;;43.80;;
52456;SDS011;38369;52.840;7.082;2022-12-10T15:14:49;98.40;;;43.85;;
52456;SDS011;38369;52.840;7.082;2022-12-10T15:17:32;104.93;;;44.10;;
52456;SDS011;38369;52.840;7.082;2022-12-10T15:19:58;92.32;;;42.45;;
52456;SDS011;38369;52.840;7.082;2022-12-10T15:22:25;91.43;;;41.47;;
52456;SDS011;38369;52.840;7.082;2022-12-10T15:24:52;90.22;;;41.72;;
52456;SDS011;38369;52.840;7.082;2022-12-10T15:27:20;94.90;;;43.20;;
52456;SDS011;38369;52.840;7.082;2022-12-10T15:29:46;89.78;;;39.80;;
52456;SDS011;38369;52.840;7.082;2022-12-10T15:32:13;81.90;;;37.80;;
52456;SDS011;38369;52.840;7.082;2022-12-10T15:34:46;81.20;;;37.78;;
52456;SDS011;38369;52.840;7.082;2022-12-10T15:37:15;77.78;;;36.60;;
52456;SDS011;38369;52.840;7.082;2022-12-10T15:39:46;85.30;;;40.53;;
52456;SDS011;38369;52.840;7.082;2022-12-10T15:42:27;79.43;;;37.42;;
52456;SDS011;38369;52.840;7.082;2022-12-10T15:44:54;87.40;;;39.47;;
52456;SDS011;38369;52.840;7.082;2022-12-10T15:47:23;88.85;;;36.30;;
52456;SDS011;38369;52.840;7.082;2022-12-10T15:49:50;84.32;;;39.10;;
52456;SDS011;38369;52.840;7.082;2022-12-10T15:54:44;93.53;;;41.00;;
52456;SDS011;38369;52.840;7.082;2022-12-10T15:59:40;89.55;;;40.10;;
52456;SDS011;38369;52.840;7.082;2022-12-10T16:04:51;89.53;;;40.13;;
52456;SDS011;38369;52.840;7.082;2022-12-10T16:07:17;92.22;;;41.40;;
52456;SDS011;38369;52.840;7.082;2022-12-10T16:09:43;98.50;;;38.45;;
52456;SDS011;38369;52.840;7.082;2022-12-10T16:12:10;91.15;;;38.53;;
52456;SDS011;38369;52.840;7.082;2022-12-10T16:14:37;90.22;;;41.55;;
52456;SDS011;38369;52.840;7.082;2022-12-10T16:17:03;98.40;;;41.20;;
52456;SDS011;38369;52.840;7.082;2022-12-10T16:19:29;100.30;;;40.85;;
52456;SDS011;38369;52.840;7.082;2022-12-10T16:21:55;104.43;;;42.03;;
52456;SDS011;38369;52.840;7.082;2022-12-10T16:24:21;97.65;;;40.65;;
52456;SDS011;38369;52.840;7.082;2022-12-10T16:26:47;99.28;;;39.50;;
52456;SDS011;38369;52.840;7.082;2022-12-10T16:29:13;97.72;;;41.35;;
52456;SDS011;38369;52.840;7.082;2022-12-10T16:31:40;96.85;;;40.78;;